createdAt,value
2022-08-22T00:02:54.995Z,9.00
2022-08-22T00:02:57.730Z,16.05
2022-08-22T00:03:09.593Z,12.18
2022-08-22T00:03:11.844Z,8.85
2022-08-22T00:04:43.122Z,10.57
2022-08-22T00:07:18.804Z,7.35
2022-08-22T00:10:25.133Z,9.00
2022-08-22T00:13:10.034Z,11.23
2022-08-22T00:16:16.997Z,10.48
2022-08-22T00:19:27.002Z,8.48
2022-08-22T00:22:05.604Z,13.35
2022-08-22T00:25:01.378Z,8.65
2022-08-22T00:27:35.821Z,12.05
2022-08-22T00:30:11.956Z,9.93
2022-08-22T00:32:48.920Z,12.88
2022-08-22T00:35:34.954Z,11.68
2022-08-22T00:38:13.015Z,10.98
2022-08-22T00:40:48.107Z,10.65
2022-08-22T00:43:39.815Z,9.88
2022-08-22T00:49:11.146Z,11.88
2022-08-22T00:51:49.524Z,9.85
2022-08-22T00:54:34.489Z,12.30
2022-08-22T00:57:28.398Z,15.25
2022-08-22T01:00:15.444Z,12.90
2022-08-22T01:02:52.668Z,10.20
2022-08-22T01:05:44.592Z,13.77
2022-08-22T01:08:35.294Z,9.88
2022-08-22T01:11:14.222Z,11.77
2022-08-22T01:14:18.600Z,8.25
2022-08-22T01:17:21.203Z,11.50
2022-08-22T01:19:56.736Z,12.68
2022-08-22T01:22:31.277Z,13.15
2022-08-22T01:25:22.497Z,11.07
2022-08-22T01:28:13.773Z,14.15
2022-08-22T01:31:18.652Z,12.48
2022-08-22T01:34:24.354Z,9.43
2022-08-22T01:37:24.843Z,9.65
2022-08-22T01:39:56.605Z,11.80
2022-08-22T01:42:40.374Z,11.57
2022-08-22T01:45:42.510Z,11.95
2022-08-22T01:48:16.904Z,12.93
2022-08-22T01:50:50.309Z,12.30
2022-08-22T01:53:25.922Z,11.93
2022-08-22T01:56:06.044Z,12.38
2022-08-22T01:58:37.192Z,10.38
2022-08-22T02:01:14.322Z,11.82
2022-08-22T02:04:05.765Z,14.80
2022-08-22T02:06:56.873Z,12.45
2022-08-22T02:09:36.395Z,12.30
2022-08-22T02:12:32.393Z,11.73
2022-08-22T02:15:14.863Z,14.38
2022-08-22T02:18:20.804Z,14.50
2022-08-22T02:21:12.101Z,18.05
2022-08-22T02:23:58.680Z,13.00
2022-08-22T02:26:57.791Z,19.58
2022-08-22T02:29:48.709Z,14.25
2022-08-22T02:32:37.438Z,15.32
2022-08-22T02:35:10.420Z,12.05
2022-08-22T02:38:17.326Z,15.32
2022-08-22T02:40:53.847Z,12.95
2022-08-22T02:43:44.448Z,14.73
2022-08-22T02:46:29.395Z,14.20
2022-08-22T02:49:06.499Z,13.88
2022-08-22T02:51:53.277Z,11.88
2022-08-22T02:54:38.681Z,14.07
2022-08-22T02:57:14.964Z,10.30
2022-08-22T03:00:06.018Z,14.95
2022-08-22T03:02:52.642Z,15.23
2022-08-22T03:05:29.054Z,14.27
2022-08-22T03:07:58.701Z,12.40
2022-08-22T03:10:41.359Z,13.35
2022-08-22T03:13:24.543Z,12.02
2022-08-22T03:16:03.907Z,14.57
2022-08-22T03:18:56.874Z,12.02
2022-08-22T03:21:47.944Z,11.35
2022-08-22T03:24:35.835Z,11.10
2022-08-22T03:27:33.195Z,11.48
2022-08-22T03:30:10.186Z,11.70
2022-08-22T03:33:15.501Z,12.43
2022-08-22T03:35:42.436Z,12.35
2022-08-22T03:38:32.881Z,13.07
2022-08-22T03:41:12.530Z,15.85
2022-08-22T03:43:59.169Z,12.18
2022-08-22T03:46:43.630Z,14.20
2022-08-22T03:49:46.878Z,13.63
2022-08-22T03:52:35.704Z,13.77
2022-08-22T03:55:42.840Z,12.38
2022-08-22T03:58:43.948Z,10.73
2022-08-22T04:01:40.071Z,13.63
2022-08-22T04:04:12.831Z,17.02
2022-08-22T04:07:19.665Z,15.38
2022-08-22T04:10:07.411Z,17.95
2022-08-22T04:13:02.902Z,11.55
2022-08-22T04:16:03.690Z,13.38
2022-08-22T04:18:36.237Z,10.70
2022-08-22T04:21:27.822Z,14.07
2022-08-22T04:24:08.185Z,9.82
2022-08-22T04:27:03.488Z,14.20
2022-08-22T04:29:41.038Z,11.88
2022-08-22T04:32:36.524Z,12.50
2022-08-22T04:35:16.248Z,10.63
2022-08-22T04:37:57.495Z,9.10
2022-08-22T04:40:30.757Z,18.55
2022-08-22T04:43:03.805Z,8.20
2022-08-22T04:45:43.712Z,12.70
2022-08-22T04:48:37.717Z,9.52
2022-08-22T04:51:08.049Z,11.88
2022-08-22T04:54:27.117Z,12.00
2022-08-22T04:57:15.285Z,11.05
2022-08-22T04:59:43.938Z,13.25
2022-08-22T05:02:19.782Z,16.15
2022-08-22T05:04:53.650Z,12.93
2022-08-22T05:07:26.081Z,13.13
2022-08-22T05:10:22.953Z,13.77
2022-08-22T05:13:04.146Z,12.95
2022-08-22T05:15:35.228Z,12.13
2022-08-22T05:18:14.345Z,12.32
2022-08-22T05:20:48.018Z,11.98
2022-08-22T05:23:29.317Z,13.90
2022-08-22T05:26:01.113Z,15.30
2022-08-22T05:28:38.327Z,12.75
2022-08-22T05:31:15.394Z,14.55
2022-08-22T05:33:49.059Z,11.23
2022-08-22T05:36:22.847Z,14.25
2022-08-22T05:39:07.782Z,12.77
2022-08-22T05:41:40.075Z,13.57
2022-08-22T05:44:39.427Z,13.65
2022-08-22T05:47:34.534Z,17.08
2022-08-22T05:50:14.577Z,12.20
2022-08-22T05:52:47.313Z,13.88
2022-08-22T05:55:36.626Z,12.80
2022-08-22T05:58:25.109Z,20.85
2022-08-22T06:01:15.138Z,11.55
2022-08-22T06:04:05.771Z,16.08
2022-08-22T06:06:49.721Z,10.95
2022-08-22T06:09:35.697Z,13.43
2022-08-22T06:12:05.151Z,22.92
2022-08-22T06:14:42.241Z,16.33
2022-08-22T06:17:31.033Z,14.95
2022-08-22T06:19:59.695Z,17.50
2022-08-22T06:22:32.184Z,16.40
2022-08-22T06:25:08.380Z,17.58
2022-08-22T06:27:36.278Z,15.32
2022-08-22T06:30:04.568Z,16.90
2022-08-22T06:32:58.388Z,13.15
2022-08-22T06:36:15.883Z,15.75
2022-08-22T06:39:11.553Z,20.73
2022-08-22T06:41:55.323Z,21.63
2022-08-22T06:44:28.739Z,15.75
2022-08-22T06:46:59.699Z,15.68
2022-08-22T06:49:29.080Z,18.88
2022-08-22T06:52:37.454Z,17.50
2022-08-22T06:55:09.181Z,18.73
2022-08-22T06:57:43.836Z,17.58
2022-08-22T07:00:14.945Z,19.20
2022-08-22T07:02:45.762Z,16.38
2022-08-22T07:05:20.598Z,19.38
2022-08-22T07:07:47.650Z,15.98
2022-08-22T07:10:15.922Z,18.73
2022-08-22T07:12:49.216Z,16.73
2022-08-22T07:15:42.955Z,13.52
2022-08-22T07:18:18.475Z,15.70
2022-08-22T07:20:55.219Z,23.02
2022-08-22T07:23:37.190Z,19.17
2022-08-22T07:26:32.050Z,17.27
2022-08-22T07:29:28.392Z,15.13
2022-08-22T07:32:28.235Z,18.30
2022-08-22T07:35:15.866Z,16.23
2022-08-22T07:37:47.739Z,18.48
2022-08-22T07:40:35.646Z,19.52
2022-08-22T07:43:32.550Z,15.35
2022-08-22T07:46:02.163Z,14.60
2022-08-22T07:49:08.090Z,16.38
2022-08-22T07:51:47.332Z,15.23
2022-08-22T07:54:26.540Z,17.25
2022-08-22T07:57:02.705Z,16.20
2022-08-22T07:59:33.252Z,19.60
2022-08-22T08:02:08.036Z,13.73
2022-08-22T08:04:40.294Z,13.48
2022-08-22T08:07:13.703Z,14.75
2022-08-22T08:09:49.665Z,17.20
2022-08-22T08:12:26.075Z,15.40
2022-08-22T08:14:56.773Z,16.55
2022-08-22T08:17:32.211Z,12.52
2022-08-22T08:20:03.695Z,18.05
2022-08-22T08:22:31.232Z,14.90
2022-08-22T08:25:00.525Z,19.80
2022-08-22T08:27:50.482Z,14.10
2022-08-22T08:30:24.032Z,14.10
2022-08-22T08:32:57.445Z,13.88
2022-08-22T08:36:02.326Z,13.55
2022-08-22T08:38:38.059Z,11.75
2022-08-22T08:41:10.236Z,14.82
2022-08-22T08:44:13.322Z,12.57
2022-08-22T08:47:16.697Z,17.08
2022-08-22T08:49:52.398Z,13.40
2022-08-22T08:52:28.070Z,16.05
2022-08-22T08:55:21.975Z,15.32
2022-08-22T08:58:17.806Z,13.40
2022-08-22T09:00:57.027Z,11.13
2022-08-22T09:09:46.273Z,15.13
2022-08-22T09:12:52.213Z,13.55
2022-08-22T09:16:14.852Z,12.10
2022-08-22T09:19:07.601Z,10.85
2022-08-22T09:24:32.947Z,15.98
2022-08-22T09:27:14.294Z,13.38
2022-08-22T09:30:00.048Z,8.82
2022-08-22T09:32:45.161Z,13.07
2022-08-22T09:35:22.527Z,12.45
2022-08-22T09:38:23.032Z,17.52
2022-08-22T09:41:01.006Z,14.38
2022-08-22T09:43:38.503Z,13.85
2022-08-22T09:46:16.345Z,12.38
2022-08-22T09:49:16.477Z,11.23
2022-08-22T09:52:14.535Z,8.98
2022-08-22T09:55:34.975Z,9.32
2022-08-22T09:58:12.572Z,10.43
2022-08-22T10:00:57.082Z,12.27
2022-08-22T10:04:13.863Z,12.40
2022-08-22T10:06:46.463Z,13.10
2022-08-22T10:09:32.010Z,10.48
2022-08-22T10:12:12.464Z,14.07
2022-08-22T10:15:16.751Z,12.32
2022-08-22T10:18:10.515Z,9.88
2022-08-22T10:20:56.754Z,9.38
2022-08-22T10:23:33.449Z,11.02
2022-08-22T10:26:29.653Z,8.77
2022-08-22T10:29:24.543Z,11.23
2022-08-22T10:32:06.018Z,9.52
2022-08-22T10:34:44.665Z,13.23
2022-08-22T10:37:36.552Z,12.00
2022-08-22T10:40:25.329Z,12.32
2022-08-22T10:42:59.430Z,13.77
2022-08-22T10:45:36.312Z,11.80
2022-08-22T10:48:09.900Z,9.45
2022-08-22T10:50:44.603Z,10.05
2022-08-22T10:53:37.155Z,9.55
2022-08-22T10:56:21.588Z,11.57
2022-08-22T10:59:46.663Z,11.00
2022-08-22T11:03:00.936Z,8.43
2022-08-22T11:05:36.382Z,14.30
2022-08-22T11:08:34.886Z,10.07
2022-08-22T11:11:07.238Z,10.73
2022-08-22T11:14:21.572Z,8.20
2022-08-22T11:17:27.367Z,9.98
2022-08-22T11:22:42.846Z,11.80
2022-08-22T11:25:36.231Z,11.63
2022-08-22T11:28:40.379Z,10.48
2022-08-22T11:31:31.739Z,9.40
2022-08-22T11:34:31.254Z,9.90
2022-08-22T11:37:42.701Z,9.48
2022-08-22T11:40:16.389Z,12.25
2022-08-22T11:43:22.306Z,10.63
2022-08-22T11:45:56.686Z,8.95
2022-08-22T11:48:28.780Z,7.93
2022-08-22T11:51:03.809Z,11.23
2022-08-22T11:53:48.986Z,11.25
2022-08-22T11:56:51.521Z,9.45
2022-08-22T11:59:55.857Z,13.90
2022-08-22T12:02:48.695Z,11.57
2022-08-22T12:05:27.091Z,11.98
2022-08-22T12:11:23.887Z,9.38
2022-08-22T12:14:07.722Z,12.25
2022-08-22T12:16:45.026Z,10.30
2022-08-22T12:20:15.046Z,12.55
2022-08-22T12:22:50.985Z,13.15
2022-08-22T12:25:17.826Z,10.45
2022-08-22T12:28:07.094Z,12.25
2022-08-22T12:30:57.439Z,12.13
2022-08-22T12:33:24.192Z,10.70
2022-08-22T12:36:02.708Z,8.43
2022-08-22T12:38:48.215Z,8.90
2022-08-22T12:41:35.026Z,12.52
2022-08-22T12:44:23.394Z,8.35
2022-08-22T12:47:17.880Z,15.15
2022-08-22T12:50:13.136Z,8.80
2022-08-22T12:53:18.148Z,15.18
2022-08-22T12:56:12.050Z,10.68
2022-08-22T12:59:07.538Z,10.60
2022-08-22T13:01:43.938Z,10.63
2022-08-22T13:04:33.467Z,11.15
2022-08-22T13:07:24.458Z,9.02
2022-08-22T13:10:00.832Z,9.50
2022-08-22T13:12:35.599Z,10.02
2022-08-22T13:15:31.803Z,13.02
2022-08-22T13:18:25.168Z,8.32
2022-08-22T13:20:52.923Z,11.15
2022-08-22T13:23:24.888Z,9.32
2022-08-22T13:26:10.593Z,10.48
2022-08-22T13:29:24.467Z,10.60
2022-08-22T13:32:04.279Z,13.45
2022-08-22T13:34:45.901Z,8.93
2022-08-22T13:37:17.795Z,9.70
2022-08-22T13:39:52.632Z,12.55
2022-08-22T13:42:30.087Z,10.98
2022-08-22T13:45:05.317Z,9.27
2022-08-22T13:47:39.831Z,9.50
2022-08-22T13:50:16.973Z,10.25
2022-08-22T13:52:55.058Z,14.45
2022-08-22T13:55:35.280Z,8.50
2022-08-22T13:58:30.580Z,8.30
2022-08-22T14:01:03.274Z,9.05
2022-08-22T14:03:48.774Z,8.23
2022-08-22T14:06:35.382Z,8.75
2022-08-22T14:09:15.320Z,10.18
2022-08-22T14:12:06.211Z,9.60
2022-08-22T14:14:38.307Z,9.00
2022-08-22T14:17:05.690Z,7.75
2022-08-22T14:19:52.865Z,8.65
2022-08-22T14:22:32.480Z,11.43
2022-08-22T14:25:24.621Z,8.10
2022-08-22T14:27:59.315Z,11.52
2022-08-22T14:30:59.327Z,7.88
2022-08-22T14:33:44.294Z,9.82
2022-08-22T14:36:35.968Z,6.75
2022-08-22T14:39:43.662Z,7.28
2022-08-22T14:42:22.787Z,8.82
2022-08-22T14:45:06.680Z,9.93
2022-08-22T14:48:14.281Z,7.25
2022-08-22T14:50:53.257Z,7.63
2022-08-22T14:53:22.195Z,7.60
2022-08-22T14:56:18.024Z,7.97
2022-08-22T14:58:59.037Z,8.93
2022-08-22T15:01:29.921Z,6.03
2022-08-22T15:04:07.724Z,5.80
2022-08-22T15:06:37.097Z,6.18
2022-08-22T15:09:23.280Z,5.15
2022-08-22T15:11:51.308Z,5.28
2022-08-22T15:14:37.799Z,5.30
2022-08-22T15:17:08.062Z,5.60
2022-08-22T15:19:47.472Z,6.88
2022-08-22T15:22:27.617Z,7.63
2022-08-22T15:25:15.683Z,7.47
2022-08-22T15:27:53.666Z,7.93
2022-08-22T15:30:37.831Z,8.98
2022-08-22T15:33:14.306Z,5.72
2022-08-22T15:35:43.862Z,7.65
2022-08-22T15:38:26.325Z,7.07
2022-08-22T15:40:55.971Z,7.53
2022-08-22T15:43:53.273Z,7.00
2022-08-22T15:46:23.119Z,6.72
2022-08-22T15:49:29.971Z,10.38
2022-08-22T15:52:01.233Z,9.32
2022-08-22T15:54:51.295Z,8.10
2022-08-22T15:57:24.259Z,6.47
2022-08-22T16:00:28.116Z,9.25
2022-08-22T16:03:28.336Z,9.50
2022-08-22T16:05:57.933Z,7.40
2022-08-22T16:08:46.135Z,7.03
2022-08-22T16:11:13.150Z,7.85
2022-08-22T16:13:43.693Z,7.72
2022-08-22T16:16:13.660Z,10.32
2022-08-22T16:18:40.556Z,7.57
2022-08-22T16:21:15.742Z,10.40
2022-08-22T16:23:56.909Z,8.88
2022-08-22T16:26:37.275Z,7.45
2022-08-22T16:29:14.739Z,7.30
2022-08-22T16:31:44.211Z,7.90
2022-08-22T16:34:17.418Z,6.78
2022-08-22T16:36:49.548Z,8.45
2022-08-22T16:39:22.421Z,12.18
2022-08-22T16:41:49.169Z,10.07
2022-08-22T16:44:56.615Z,7.30
2022-08-22T16:47:40.743Z,9.68
2022-08-22T16:50:31.180Z,6.97
2022-08-22T16:53:21.159Z,9.40
2022-08-22T16:56:08.515Z,8.05
2022-08-22T16:59:09.693Z,9.70
2022-08-22T17:02:18.882Z,10.13
2022-08-22T17:04:52.079Z,11.23
2022-08-22T17:07:34.102Z,10.23
2022-08-22T17:10:19.468Z,7.18
2022-08-22T17:13:11.200Z,9.68
2022-08-22T17:15:52.466Z,7.80
2022-08-22T17:18:48.159Z,9.30
2022-08-22T17:21:26.080Z,7.20
2022-08-22T17:24:32.325Z,12.27
2022-08-22T17:27:19.456Z,8.20
2022-08-22T17:30:11.692Z,8.18
2022-08-22T17:32:46.958Z,6.72
2022-08-22T17:35:34.472Z,9.13
2022-08-22T17:38:12.654Z,18.95
2022-08-22T17:41:16.496Z,10.38
2022-08-22T17:44:01.991Z,6.45
2022-08-22T17:46:34.415Z,8.02
2022-08-22T17:49:29.732Z,10.23
2022-08-22T17:52:09.591Z,10.70
2022-08-22T17:54:59.041Z,4.22
2022-08-22T17:57:36.553Z,8.85
2022-08-22T18:00:17.601Z,8.52
2022-08-22T18:05:23.262Z,6.20
2022-08-22T18:08:04.046Z,8.50
2022-08-22T18:10:38.524Z,7.68
2022-08-22T18:13:17.397Z,8.90
2022-08-22T18:16:24.361Z,5.38
2022-08-22T18:19:14.046Z,8.48
2022-08-22T18:22:04.227Z,6.80
2022-08-22T18:25:18.291Z,8.45
2022-08-22T18:27:53.671Z,5.57
2022-08-22T18:30:28.314Z,6.88
2022-08-22T18:33:33.062Z,8.73
2022-08-22T18:36:30.233Z,10.85
2022-08-22T18:39:10.738Z,10.18
2022-08-22T18:42:16.363Z,9.20
2022-08-22T18:44:44.816Z,9.38
2022-08-22T18:47:33.180Z,8.70
2022-08-22T18:50:22.686Z,11.25
2022-08-22T18:55:43.069Z,9.50
2022-08-22T18:58:28.006Z,9.02
2022-08-22T19:01:11.218Z,7.93
2022-08-22T19:04:03.920Z,8.98
2022-08-22T19:06:39.803Z,10.70
2022-08-22T19:09:24.994Z,11.07
2022-08-22T19:12:39.859Z,9.68
2022-08-22T19:15:38.986Z,17.23
2022-08-22T19:18:34.425Z,8.77
2022-08-22T19:21:47.840Z,9.73
2022-08-22T19:24:23.834Z,9.30
2022-08-22T19:27:18.072Z,11.45
2022-08-22T19:29:54.061Z,12.30
2022-08-22T19:32:45.088Z,9.63
2022-08-22T19:35:21.695Z,12.52
2022-08-22T19:38:00.844Z,7.60
2022-08-22T19:40:45.527Z,9.85
2022-08-22T19:43:30.562Z,8.90
2022-08-22T19:45:59.897Z,13.48
2022-08-22T19:48:45.384Z,10.95
2022-08-22T19:51:23.785Z,11.30
2022-08-22T19:54:05.670Z,8.15
2022-08-22T19:56:53.621Z,8.15
2022-08-22T19:59:50.858Z,10.70
2022-08-22T20:02:36.698Z,8.82
2022-08-22T20:05:27.689Z,12.60
2022-08-22T20:07:55.081Z,10.20
2022-08-22T20:10:27.618Z,10.57
2022-08-22T20:13:05.608Z,10.68
2022-08-22T20:16:00.354Z,8.95
2022-08-22T20:19:04.910Z,11.27
2022-08-22T20:21:55.740Z,7.47
2022-08-22T20:24:40.417Z,11.52
2022-08-22T20:27:15.517Z,8.65
2022-08-22T20:29:52.956Z,11.75
2022-08-22T20:32:23.480Z,9.20
2022-08-22T20:34:56.930Z,8.73
2022-08-22T20:37:50.342Z,14.13
2022-08-22T20:40:54.671Z,11.60
2022-08-22T20:46:36.362Z,8.98
2022-08-22T20:49:05.184Z,9.73
2022-08-22T20:51:33.536Z,12.75
2022-08-22T20:54:15.565Z,11.32
2022-08-22T20:56:53.672Z,12.45
2022-08-22T20:59:29.821Z,11.68
2022-08-22T21:02:17.023Z,10.43
2022-08-22T21:04:52.940Z,12.43
2022-08-22T21:07:26.087Z,12.40
2022-08-22T21:10:35.906Z,12.70
2022-08-22T21:13:30.551Z,11.23
2022-08-22T21:16:02.585Z,12.23
2022-08-22T21:18:39.347Z,15.25
2022-08-22T21:21:17.281Z,10.88
2022-08-22T21:23:50.022Z,12.15
2022-08-22T21:26:26.096Z,12.05
2022-08-22T21:29:06.073Z,10.93
2022-08-22T21:31:41.527Z,10.95
2022-08-22T21:34:31.068Z,14.85
2022-08-22T21:37:08.342Z,11.68
2022-08-22T21:39:43.615Z,10.18
2022-08-22T21:42:21.790Z,13.50
2022-08-22T21:45:09.419Z,14.07
2022-08-22T21:47:40.210Z,12.57
2022-08-22T21:50:13.097Z,10.80
2022-08-22T21:52:59.854Z,11.02
2022-08-22T21:55:29.840Z,13.25
2022-08-22T21:58:12.084Z,13.48
2022-08-22T22:00:53.231Z,10.43
2022-08-22T22:03:32.160Z,11.83
2022-08-22T22:06:01.070Z,10.70
2022-08-22T22:08:31.473Z,13.13
2022-08-22T22:11:02.681Z,12.10
2022-08-22T22:13:31.976Z,14.38
2022-08-22T22:15:59.722Z,12.38
2022-08-22T22:18:30.841Z,8.60
2022-08-22T22:20:57.957Z,13.50
2022-08-22T22:23:27.758Z,13.48
2022-08-22T22:25:56.445Z,15.40
2022-08-22T22:28:36.742Z,12.98
2022-08-22T22:31:03.994Z,11.10
2022-08-22T22:33:36.475Z,14.82
2022-08-22T22:36:38.016Z,15.55
2022-08-22T22:39:06.672Z,12.60
2022-08-22T22:41:35.953Z,12.90
2022-08-22T22:44:06.399Z,13.27
2022-08-22T22:46:33.171Z,16.20
2022-08-22T22:49:05.387Z,9.40
2022-08-22T22:51:34.403Z,13.70
2022-08-22T22:54:01.255Z,14.55
2022-08-22T22:56:29.000Z,12.45
2022-08-22T22:58:58.932Z,12.00
2022-08-22T23:01:27.857Z,11.07
2022-08-22T23:04:03.224Z,13.27
2022-08-22T23:06:33.111Z,15.43
2022-08-22T23:08:59.928Z,15.05
2022-08-22T23:11:29.651Z,12.27
2022-08-22T23:13:56.990Z,13.15
2022-08-22T23:16:27.276Z,13.52
2022-08-22T23:18:55.032Z,12.52
2022-08-22T23:21:30.138Z,11.05
2022-08-22T23:24:02.129Z,13.93
2022-08-22T23:26:29.706Z,11.75
2022-08-22T23:28:59.783Z,10.88
2022-08-22T23:31:30.101Z,11.10
2022-08-22T23:34:01.782Z,12.38
2022-08-22T23:36:29.649Z,9.20
2022-08-22T23:38:59.448Z,9.80
2022-08-22T23:41:29.355Z,9.32
2022-08-22T23:43:58.676Z,11.02
2022-08-22T23:46:27.931Z,10.45
2022-08-22T23:49:00.290Z,14.43
2022-08-22T23:51:28.008Z,8.95
2022-08-22T23:53:56.896Z,10.27
2022-08-22T23:56:30.777Z,10.05
2022-08-22T23:59:03.842Z,10.90
